sensor_id;sensor_type;location;lat;lon;timestamp;temperature;humidity
17726;DHT22;8983;53.156;17.960;2024-02-14T00:00:15;2.80;99.90
17726;DHT22;8983;53.156;17.960;2024-02-14T00:07:41;2.80;99.90
17726;DHT22;8983;53.156;17.960;2024-02-14T00:10:11;5.50;99.90
17726;DHT22;8983;53.156;17.960;2024-02-14T00:12:39;3.50;99.90
17726;DHT22;8983;53.156;17.960;2024-02-14T00:15:07;2.70;99.90
17726;DHT22;8983;53.156;17.960;2024-02-14T00:17:36;2.70;99.90
17726;DHT22;8983;53.156;17.960;2024-02-14T00:20:06;2.90;99.90
17726;DHT22;8983;53.156;17.960;2024-02-14T00:27:37;3.10;99.90
17726;DHT22;8983;53.156;17.960;2024-02-14T00:30:06;2.60;99.90
17726;DHT22;8983;53.156;17.960;2024-02-14T00:35:04;2.80;99.90
17726;DHT22;8983;53.156;17.960;2024-02-14T00:37:32;3.10;99.90
17726;DHT22;8983;53.156;17.960;2024-02-14T00:42:29;3.00;99.90
17726;DHT22;8983;53.156;17.960;2024-02-14T00:47:27;2.50;99.90
17726;DHT22;8983;53.156;17.960;2024-02-14T00:49:55;2.80;99.90
17726;DHT22;8983;53.156;17.960;2024-02-14T00:52:24;2.70;99.90
17726;DHT22;8983;53.156;17.960;2024-02-14T00:57:21;3.00;99.90
17726;DHT22;8983;53.156;17.960;2024-02-14T00:59:52;2.50;99.90
17726;DHT22;8983;53.156;17.960;2024-02-14T01:02:24;2.70;99.90
17726;DHT22;8983;53.156;17.960;2024-02-14T01:04:53;2.40;99.90
17726;DHT22;8983;53.156;17.960;2024-02-14T01:09:50;2.70;99.90
17726;DHT22;8983;53.156;17.960;2024-02-14T01:12:18;2.40;99.90
17726;DHT22;8983;53.156;17.960;2024-02-14T01:17:15;2.50;99.90
17726;DHT22;8983;53.156;17.960;2024-02-14T01:19:44;2.50;99.90
17726;DHT22;8983;53.156;17.960;2024-02-14T01:22:13;2.50;99.90
17726;DHT22;8983;53.156;17.960;2024-02-14T01:24:43;2.70;99.90
17726;DHT22;8983;53.156;17.960;2024-02-14T01:27:11;2.50;99.90
17726;DHT22;8983;53.156;17.960;2024-02-14T01:29:40;2.40;99.90
17726;DHT22;8983;53.156;17.960;2024-02-14T01:32:08;2.30;99.90
17726;DHT22;8983;53.156;17.960;2024-02-14T01:34:36;2.70;99.90
17726;DHT22;8983;53.156;17.960;2024-02-14T01:37:06;2.60;99.90
17726;DHT22;8983;53.156;17.960;2024-02-14T01:39:36;2.30;99.90
17726;DHT22;8983;53.156;17.960;2024-02-14T01:44:34;2.10;99.90
17726;DHT22;8983;53.156;17.960;2024-02-14T01:47:04;2.40;99.90
17726;DHT22;8983;53.156;17.960;2024-02-14T01:49:33;2.50;99.90
17726;DHT22;8983;53.156;17.960;2024-02-14T01:52:04;2.20;99.90
17726;DHT22;8983;53.156;17.960;2024-02-14T01:54:35;2.30;99.90
17726;DHT22;8983;53.156;17.960;2024-02-14T01:57:04;2.40;99.90
17726;DHT22;8983;53.156;17.960;2024-02-14T01:59:33;2.20;99.90
17726;DHT22;8983;53.156;17.960;2024-02-14T02:02:03;2.10;99.90
17726;DHT22;8983;53.156;17.960;2024-02-14T02:04:34;2.20;99.90
17726;DHT22;8983;53.156;17.960;2024-02-14T02:07:02;2.00;99.90
17726;DHT22;8983;53.156;17.960;2024-02-14T02:12:01;2.10;99.90
17726;DHT22;8983;53.156;17.960;2024-02-14T02:14:33;2.00;99.90
17726;DHT22;8983;53.156;17.960;2024-02-14T02:17:01;2.30;99.90
17726;DHT22;8983;53.156;17.960;2024-02-14T02:19:34;2.20;99.90
17726;DHT22;8983;53.156;17.960;2024-02-14T02:22:03;4.50;99.90
17726;DHT22;8983;53.156;17.960;2024-02-14T02:24:34;2.10;99.90
17726;DHT22;8983;53.156;17.960;2024-02-14T02:27:02;2.10;99.90
17726;DHT22;8983;53.156;17.960;2024-02-14T02:32:00;2.00;99.90
17726;DHT22;8983;53.156;17.960;2024-02-14T02:34:29;2.10;99.90
17726;DHT22;8983;53.156;17.960;2024-02-14T02:36:57;1.90;99.90
17726;DHT22;8983;53.156;17.960;2024-02-14T02:39:25;2.00;99.90
17726;DHT22;8983;53.156;17.960;2024-02-14T02:41:54;2.00;99.90
17726;DHT22;8983;53.156;17.960;2024-02-14T02:44:24;1.80;99.90
17726;DHT22;8983;53.156;17.960;2024-02-14T02:46:53;1.90;99.90
17726;DHT22;8983;53.156;17.960;2024-02-14T02:54:20;1.80;99.90
17726;DHT22;8983;53.156;17.960;2024-02-14T02:56:50;2.10;99.90
17726;DHT22;8983;53.156;17.960;2024-02-14T02:59:20;2.00;99.90
17726;DHT22;8983;53.156;17.960;2024-02-14T03:01:48;2.00;99.90
17726;DHT22;8983;53.156;17.960;2024-02-14T03:09:13;2.20;99.90
17726;DHT22;8983;53.156;17.960;2024-02-14T03:11:41;1.70;99.90
17726;DHT22;8983;53.156;17.960;2024-02-14T03:14:10;1.90;99.90
17726;DHT22;8983;53.156;17.960;2024-02-14T03:16:39;2.00;99.90
17726;DHT22;8983;53.156;17.960;2024-02-14T03:21:36;1.80;99.90
17726;DHT22;8983;53.156;17.960;2024-02-14T03:24:05;1.50;99.90
17726;DHT22;8983;53.156;17.960;2024-02-14T03:26:36;1.80;99.90
17726;DHT22;8983;53.156;17.960;2024-02-14T03:29:05;1.50;99.90
17726;DHT22;8983;53.156;17.960;2024-02-14T03:34:04;1.60;99.90
17726;DHT22;8983;53.156;17.960;2024-02-14T03:36:33;1.80;99.90
17726;DHT22;8983;53.156;17.960;2024-02-14T03:39:01;1.90;99.90
17726;DHT22;8983;53.156;17.960;2024-02-14T03:43:59;1.70;99.90
17726;DHT22;8983;53.156;17.960;2024-02-14T03:48:58;1.60;99.90
17726;DHT22;8983;53.156;17.960;2024-02-14T03:51:28;1.50;99.90
17726;DHT22;8983;53.156;17.960;2024-02-14T03:53:56;1.60;99.90
17726;DHT22;8983;53.156;17.960;2024-02-14T04:01:22;1.80;99.90
17726;DHT22;8983;53.156;17.960;2024-02-14T04:03:51;1.50;99.90
17726;DHT22;8983;53.156;17.960;2024-02-14T04:08:49;1.60;99.90
17726;DHT22;8983;53.156;17.960;2024-02-14T04:11:17;1.90;99.90
17726;DHT22;8983;53.156;17.960;2024-02-14T04:18:43;1.40;99.90
17726;DHT22;8983;53.156;17.960;2024-02-14T04:21:11;1.70;99.90
17726;DHT22;8983;53.156;17.960;2024-02-14T04:23:39;1.50;99.90
17726;DHT22;8983;53.156;17.960;2024-02-14T04:26:09;1.70;99.90
17726;DHT22;8983;53.156;17.960;2024-02-14T04:28:38;1.50;99.90
17726;DHT22;8983;53.156;17.960;2024-02-14T04:31:08;1.50;99.90
17726;DHT22;8983;53.156;17.960;2024-02-14T04:33:36;2.30;99.90
17726;DHT22;8983;53.156;17.960;2024-02-14T04:36:05;1.60;99.90
17726;DHT22;8983;53.156;17.960;2024-02-14T04:38:34;1.70;99.90
17726;DHT22;8983;53.156;17.960;2024-02-14T04:41:02;1.30;99.90
17726;DHT22;8983;53.156;17.960;2024-02-14T04:43:32;1.50;99.90
17726;DHT22;8983;53.156;17.960;2024-02-14T04:46:00;1.50;99.90
17726;DHT22;8983;53.156;17.960;2024-02-14T04:48:28;1.40;99.90
17726;DHT22;8983;53.156;17.960;2024-02-14T04:55:55;1.40;99.90
17726;DHT22;8983;53.156;17.960;2024-02-14T04:58:23;1.40;99.90
17726;DHT22;8983;53.156;17.960;2024-02-14T05:00:54;2.20;99.90
17726;DHT22;8983;53.156;17.960;2024-02-14T05:03:23;1.40;99.90
17726;DHT22;8983;53.156;17.960;2024-02-14T05:05:53;1.30;99.90
17726;DHT22;8983;53.156;17.960;2024-02-14T05:08:21;1.50;99.90
17726;DHT22;8983;53.156;17.960;2024-02-14T05:10:49;1.50;99.90
17726;DHT22;8983;53.156;17.960;2024-02-14T05:18:16;1.40;99.90
17726;DHT22;8983;53.156;17.960;2024-02-14T05:30:41;1.00;99.90
17726;DHT22;8983;53.156;17.960;2024-02-14T05:33:09;1.20;99.90
17726;DHT22;8983;53.156;17.960;2024-02-14T05:35:39;1.60;99.90
17726;DHT22;8983;53.156;17.960;2024-02-14T05:45:35;1.10;99.90
17726;DHT22;8983;53.156;17.960;2024-02-14T05:48:03;0.90;99.90
17726;DHT22;8983;53.156;17.960;2024-02-14T05:50:31;1.20;99.90
17726;DHT22;8983;53.156;17.960;2024-02-14T05:53:01;1.00;99.90
17726;DHT22;8983;53.156;17.960;2024-02-14T05:57:57;0.90;99.90
17726;DHT22;8983;53.156;17.960;2024-02-14T06:02:56;1.20;99.90
17726;DHT22;8983;53.156;17.960;2024-02-14T06:05:24;0.90;99.90
17726;DHT22;8983;53.156;17.960;2024-02-14T06:07:52;1.00;99.90
17726;DHT22;8983;53.156;17.960;2024-02-14T06:10:22;0.90;99.90
17726;DHT22;8983;53.156;17.960;2024-02-14T06:12:52;0.90;99.90
17726;DHT22;8983;53.156;17.960;2024-02-14T06:17:49;0.70;99.90
17726;DHT22;8983;53.156;17.960;2024-02-14T06:22:46;0.90;99.90
17726;DHT22;8983;53.156;17.960;2024-02-14T06:25:28;0.90;99.90
17726;DHT22;8983;53.156;17.960;2024-02-14T06:27:57;0.80;99.90
17726;DHT22;8983;53.156;17.960;2024-02-14T06:30:25;1.40;99.90
17726;DHT22;8983;53.156;17.960;2024-02-14T06:32:58;0.90;99.90
17726;DHT22;8983;53.156;17.960;2024-02-14T06:35:29;0.80;99.90
17726;DHT22;8983;53.156;17.960;2024-02-14T06:37:58;0.40;99.90
17726;DHT22;8983;53.156;17.960;2024-02-14T06:40:32;0.70;99.90
17726;DHT22;8983;53.156;17.960;2024-02-14T06:43:00;1.10;99.90
17726;DHT22;8983;53.156;17.960;2024-02-14T06:47:57;0.80;99.90
17726;DHT22;8983;53.156;17.960;2024-02-14T06:50:26;0.60;99.90
17726;DHT22;8983;53.156;17.960;2024-02-14T06:52:55;0.80;99.90
17726;DHT22;8983;53.156;17.960;2024-02-14T06:57:57;0.70;99.90
17726;DHT22;8983;53.156;17.960;2024-02-14T07:02:55;0.40;99.90
17726;DHT22;8983;53.156;17.960;2024-02-14T07:05:23;0.50;99.90
17726;DHT22;8983;53.156;17.960;2024-02-14T07:07:51;0.90;99.90
17726;DHT22;8983;53.156;17.960;2024-02-14T07:10:20;1.10;99.90
17726;DHT22;8983;53.156;17.960;2024-02-14T07:15:18;0.80;99.90
17726;DHT22;8983;53.156;17.960;2024-02-14T07:20:15;0.90;99.90
17726;DHT22;8983;53.156;17.960;2024-02-14T07:25:14;1.60;99.90
17726;DHT22;8983;53.156;17.960;2024-02-14T07:27:42;0.80;99.90
17726;DHT22;8983;53.156;17.960;2024-02-14T07:30:12;0.90;99.90
17726;DHT22;8983;53.156;17.960;2024-02-14T07:32:42;1.10;99.90
17726;DHT22;8983;53.156;17.960;2024-02-14T07:35:11;0.90;99.90
17726;DHT22;8983;53.156;17.960;2024-02-14T07:37:40;0.80;99.90
17726;DHT22;8983;53.156;17.960;2024-02-14T07:40:10;1.00;99.90
17726;DHT22;8983;53.156;17.960;2024-02-14T07:42:42;1.20;99.90
17726;DHT22;8983;53.156;17.960;2024-02-14T07:50:10;1.00;99.90
17726;DHT22;8983;53.156;17.960;2024-02-14T07:52:41;1.40;99.90
17726;DHT22;8983;53.156;17.960;2024-02-14T07:55:10;1.20;99.90
17726;DHT22;8983;53.156;17.960;2024-02-14T07:57:39;0.90;99.90
17726;DHT22;8983;53.156;17.960;2024-02-14T08:00:08;1.40;99.90
17726;DHT22;8983;53.156;17.960;2024-02-14T08:02:37;1.30;99.90
17726;DHT22;8983;53.156;17.960;2024-02-14T08:05:05;1.10;99.90
17726;DHT22;8983;53.156;17.960;2024-02-14T08:07:37;1.30;99.90
17726;DHT22;8983;53.156;17.960;2024-02-14T08:12:33;1.20;99.90
17726;DHT22;8983;53.156;17.960;2024-02-14T08:15:02;1.50;99.90
17726;DHT22;8983;53.156;17.960;2024-02-14T08:17:32;1.20;99.90
17726;DHT22;8983;53.156;17.960;2024-02-14T08:20:03;1.30;99.90
17726;DHT22;8983;53.156;17.960;2024-02-14T08:22:32;1.40;99.90
17726;DHT22;8983;53.156;17.960;2024-02-14T08:25:01;1.10;99.90
17726;DHT22;8983;53.156;17.960;2024-02-14T08:29:59;2.10;99.90
17726;DHT22;8983;53.156;17.960;2024-02-14T08:32:27;1.80;99.90
17726;DHT22;8983;53.156;17.960;2024-02-14T08:34:55;1.30;99.90
17726;DHT22;8983;53.156;17.960;2024-02-14T08:37:23;1.80;99.90
17726;DHT22;8983;53.156;17.960;2024-02-14T08:39:52;1.70;99.90
17726;DHT22;8983;53.156;17.960;2024-02-14T08:42:21;1.60;99.90
17726;DHT22;8983;53.156;17.960;2024-02-14T08:44:49;1.80;99.90
17726;DHT22;8983;53.156;17.960;2024-02-14T08:47:17;1.80;99.90
17726;DHT22;8983;53.156;17.960;2024-02-14T08:52:14;1.60;99.90
17726;DHT22;8983;53.156;17.960;2024-02-14T08:54:42;1.90;99.90
17726;DHT22;8983;53.156;17.960;2024-02-14T08:57:10;2.10;99.90
17726;DHT22;8983;53.156;17.960;2024-02-14T08:59:40;2.70;99.90
17726;DHT22;8983;53.156;17.960;2024-02-14T09:04:40;2.00;99.90
17726;DHT22;8983;53.156;17.960;2024-02-14T09:07:08;2.30;99.90
17726;DHT22;8983;53.156;17.960;2024-02-14T09:09:36;2.20;99.90
17726;DHT22;8983;53.156;17.960;2024-02-14T09:12:06;2.50;99.90
17726;DHT22;8983;53.156;17.960;2024-02-14T09:14:35;2.20;99.90
17726;DHT22;8983;53.156;17.960;2024-02-14T09:17:04;2.60;99.90
17726;DHT22;8983;53.156;17.960;2024-02-14T09:19:33;2.40;99.90
17726;DHT22;8983;53.156;17.960;2024-02-14T09:22:01;2.20;99.90
17726;DHT22;8983;53.156;17.960;2024-02-14T09:24:33;3.30;99.90
17726;DHT22;8983;53.156;17.960;2024-02-14T09:27:01;3.00;99.90
17726;DHT22;8983;53.156;17.960;2024-02-14T09:32:05;2.70;99.90
17726;DHT22;8983;53.156;17.960;2024-02-14T09:34:34;2.70;99.90
17726;DHT22;8983;53.156;17.960;2024-02-14T09:37:03;3.00;99.90
17726;DHT22;8983;53.156;17.960;2024-02-14T09:42:09;3.10;99.90
17726;DHT22;8983;53.156;17.960;2024-02-14T09:44:37;3.20;99.90
17726;DHT22;8983;53.156;17.960;2024-02-14T09:47:07;3.30;99.90
17726;DHT22;8983;53.156;17.960;2024-02-14T09:49:38;3.40;99.90
17726;DHT22;8983;53.156;17.960;2024-02-14T09:52:08;3.50;99.90
17726;DHT22;8983;53.156;17.960;2024-02-14T09:57:06;3.70;99.90
17726;DHT22;8983;53.156;17.960;2024-02-14T10:02:04;3.70;99.90
17726;DHT22;8983;53.156;17.960;2024-02-14T10:04:33;3.90;99.90
17726;DHT22;8983;53.156;17.960;2024-02-14T10:07:03;4.00;99.90
17726;DHT22;8983;53.156;17.960;2024-02-14T10:09:40;4.10;99.90
17726;DHT22;8983;53.156;17.960;2024-02-14T10:12:08;4.20;99.90
17726;DHT22;8983;53.156;17.960;2024-02-14T10:14:40;4.30;99.90
17726;DHT22;8983;53.156;17.960;2024-02-14T10:17:17;4.40;99.90
17726;DHT22;8983;53.156;17.960;2024-02-14T10:19:57;4.50;99.90
17726;DHT22;8983;53.156;17.960;2024-02-14T10:34:47;4.70;99.90
17726;DHT22;8983;53.156;17.960;2024-02-14T10:37:18;4.70;99.90
17726;DHT22;8983;53.156;17.960;2024-02-14T10:44:47;4.80;99.90
17726;DHT22;8983;53.156;17.960;2024-02-14T10:47:19;4.90;99.90
17726;DHT22;8983;53.156;17.960;2024-02-14T10:49:49;4.90;99.90
17726;DHT22;8983;53.156;17.960;2024-02-14T10:52:21;5.00;99.90
17726;DHT22;8983;53.156;17.960;2024-02-14T10:54:54;5.70;99.90
17726;DHT22;8983;53.156;17.960;2024-02-14T10:59:53;5.10;99.90
17726;DHT22;8983;53.156;17.960;2024-02-14T11:07:21;5.30;99.90
17726;DHT22;8983;53.156;17.960;2024-02-14T11:10:01;5.30;99.90
17726;DHT22;8983;53.156;17.960;2024-02-14T11:12:33;5.40;99.90
17726;DHT22;8983;53.156;17.960;2024-02-14T11:15:09;5.50;99.90
17726;DHT22;8983;53.156;17.960;2024-02-14T11:17:39;5.50;99.90
17726;DHT22;8983;53.156;17.960;2024-02-14T11:20:18;5.60;99.90
17726;DHT22;8983;53.156;17.960;2024-02-14T11:23:00;5.60;99.90
17726;DHT22;8983;53.156;17.960;2024-02-14T11:25:30;5.70;99.90
17726;DHT22;8983;53.156;17.960;2024-02-14T11:30:29;5.70;99.90
17726;DHT22;8983;53.156;17.960;2024-02-14T11:33:16;5.90;99.90
17726;DHT22;8983;53.156;17.960;2024-02-14T11:35:47;5.90;99.90
17726;DHT22;8983;53.156;17.960;2024-02-14T11:38:18;6.00;99.90
17726;DHT22;8983;53.156;17.960;2024-02-14T11:40:46;6.20;99.90
17726;DHT22;8983;53.156;17.960;2024-02-14T11:43:17;6.10;99.90
17726;DHT22;8983;53.156;17.960;2024-02-14T11:45:46;6.10;99.90
17726;DHT22;8983;53.156;17.960;2024-02-14T11:48:17;6.10;99.90
17726;DHT22;8983;53.156;17.960;2024-02-14T11:53:15;6.10;99.90
17726;DHT22;8983;53.156;17.960;2024-02-14T11:55:47;6.20;99.90
17726;DHT22;8983;53.156;17.960;2024-02-14T11:58:17;6.20;99.90
17726;DHT22;8983;53.156;17.960;2024-02-14T12:03:17;6.20;99.90
17726;DHT22;8983;53.156;17.960;2024-02-14T12:05:47;6.20;99.90
17726;DHT22;8983;53.156;17.960;2024-02-14T12:13:19;6.30;99.90
17726;DHT22;8983;53.156;17.960;2024-02-14T12:15:49;6.30;99.90
17726;DHT22;8983;53.156;17.960;2024-02-14T12:18:20;6.40;99.90
17726;DHT22;8983;53.156;17.960;2024-02-14T12:25:53;6.60;99.90
17726;DHT22;8983;53.156;17.960;2024-02-14T12:28:23;6.50;99.90
17726;DHT22;8983;53.156;17.960;2024-02-14T12:30:51;6.60;99.90
17726;DHT22;8983;53.156;17.960;2024-02-14T12:33:24;6.60;99.90
17726;DHT22;8983;53.156;17.960;2024-02-14T12:35:54;6.60;99.90
17726;DHT22;8983;53.156;17.960;2024-02-14T12:48:23;6.70;99.90
17726;DHT22;8983;53.156;17.960;2024-02-14T12:53:24;6.70;99.90
17726;DHT22;8983;53.156;17.960;2024-02-14T12:55:52;6.30;99.90
17726;DHT22;8983;53.156;17.960;2024-02-14T13:25:41;6.70;99.90
17726;DHT22;8983;53.156;17.960;2024-02-14T13:35:38;6.60;99.90
17726;DHT22;8983;53.156;17.960;2024-02-14T13:38:06;6.60;99.90
17726;DHT22;8983;53.156;17.960;2024-02-14T13:40:36;6.80;99.90
17726;DHT22;8983;53.156;17.960;2024-02-14T13:45:40;6.80;99.90
17726;DHT22;8983;53.156;17.960;2024-02-14T13:50:40;7.40;99.90
17726;DHT22;8983;53.156;17.960;2024-02-14T14:03:10;6.60;99.90
17726;DHT22;8983;53.156;17.960;2024-02-14T14:05:41;6.60;99.90
17726;DHT22;8983;53.156;17.960;2024-02-14T14:08:09;6.60;99.90
17726;DHT22;8983;53.156;17.960;2024-02-14T14:18:04;6.50;99.90
17726;DHT22;8983;53.156;17.960;2024-02-14T14:23:06;6.40;99.90
17726;DHT22;8983;53.156;17.960;2024-02-14T14:28:05;6.50;99.90
17726;DHT22;8983;53.156;17.960;2024-02-14T14:33:03;6.40;99.90
17726;DHT22;8983;53.156;17.960;2024-02-14T14:40:33;6.40;99.90
17726;DHT22;8983;53.156;17.960;2024-02-14T14:45:29;6.50;99.90
17726;DHT22;8983;53.156;17.960;2024-02-14T14:47:58;6.50;99.90
17726;DHT22;8983;53.156;17.960;2024-02-14T14:57:53;6.30;99.90
17726;DHT22;8983;53.156;17.960;2024-02-14T15:05:21;6.40;99.90
17726;DHT22;8983;53.156;17.960;2024-02-14T15:12:48;5.50;99.90
17726;DHT22;8983;53.156;17.960;2024-02-14T15:15:17;6.00;99.90
17726;DHT22;8983;53.156;17.960;2024-02-14T15:30:23;6.00;99.90
17726;DHT22;8983;53.156;17.960;2024-02-14T15:33:09;5.90;99.90
17726;DHT22;8983;53.156;17.960;2024-02-14T15:35:58;5.90;99.90
17726;DHT22;8983;53.156;17.960;2024-02-14T15:45:57;5.90;99.90
17726;DHT22;8983;53.156;17.960;2024-02-14T15:48:27;5.90;99.90
17726;DHT22;8983;53.156;17.960;2024-02-14T15:55:57;5.80;99.90
17726;DHT22;8983;53.156;17.960;2024-02-14T16:03:26;5.80;99.90
17726;DHT22;8983;53.156;17.960;2024-02-14T16:05:55;5.80;99.90
17726;DHT22;8983;53.156;17.960;2024-02-14T16:08:24;5.80;99.90
17726;DHT22;8983;53.156;17.960;2024-02-14T16:13:24;6.00;99.90
17726;DHT22;8983;53.156;17.960;2024-02-14T16:20:51;5.60;99.90
17726;DHT22;8983;53.156;17.960;2024-02-14T16:28:16;5.90;99.90
17726;DHT22;8983;53.156;17.960;2024-02-14T16:38:12;5.60;99.90
17726;DHT22;8983;53.156;17.960;2024-02-14T16:45:37;5.60;99.90
17726;DHT22;8983;53.156;17.960;2024-02-14T16:48:07;5.60;99.90
17726;DHT22;8983;53.156;17.960;2024-02-14T16:55:35;5.70;99.90
17726;DHT22;8983;53.156;17.960;2024-02-14T16:58:04;5.70;99.90
17726;DHT22;8983;53.156;17.960;2024-02-14T17:10:39;5.60;99.90
17726;DHT22;8983;53.156;17.960;2024-02-14T17:18:05;5.50;99.90
17726;DHT22;8983;53.156;17.960;2024-02-14T17:23:04;5.50;99.90
17726;DHT22;8983;53.156;17.960;2024-02-14T17:28:02;5.60;99.90
17726;DHT22;8983;53.156;17.960;2024-02-14T17:30:31;5.20;99.90
17726;DHT22;8983;53.156;17.960;2024-02-14T17:37:57;5.70;99.90
17726;DHT22;8983;53.156;17.960;2024-02-14T17:45:24;5.60;99.90
17726;DHT22;8983;53.156;17.960;2024-02-14T17:52:50;5.70;99.90
17726;DHT22;8983;53.156;17.960;2024-02-14T18:02:46;5.70;99.90
17726;DHT22;8983;53.156;17.960;2024-02-14T18:10:15;5.80;99.90
17726;DHT22;8983;53.156;17.960;2024-02-14T18:15:12;5.80;99.90
17726;DHT22;8983;53.156;17.960;2024-02-14T18:17:41;5.70;99.90
17726;DHT22;8983;53.156;17.960;2024-02-14T18:20:12;5.60;99.90
17726;DHT22;8983;53.156;17.960;2024-02-14T18:22:40;5.80;99.90
17726;DHT22;8983;53.156;17.960;2024-02-14T18:25:08;5.70;99.90
17726;DHT22;8983;53.156;17.960;2024-02-14T18:30:07;5.60;99.90
17726;DHT22;8983;53.156;17.960;2024-02-14T18:32:37;5.70;99.90
17726;DHT22;8983;53.156;17.960;2024-02-14T18:35:06;5.60;99.90
17726;DHT22;8983;53.156;17.960;2024-02-14T18:37:36;5.70;99.90
17726;DHT22;8983;53.156;17.960;2024-02-14T18:40:05;5.70;99.90
17726;DHT22;8983;53.156;17.960;2024-02-14T18:42:34;5.70;99.90
17726;DHT22;8983;53.156;17.960;2024-02-14T18:45:02;5.70;99.90
17726;DHT22;8983;53.156;17.960;2024-02-14T18:47:34;5.60;99.90
17726;DHT22;8983;53.156;17.960;2024-02-14T18:50:03;5.60;99.90
17726;DHT22;8983;53.156;17.960;2024-02-14T18:52:31;5.60;99.90
17726;DHT22;8983;53.156;17.960;2024-02-14T18:55:01;5.70;99.90
17726;DHT22;8983;53.156;17.960;2024-02-14T18:57:29;5.70;99.90
17726;DHT22;8983;53.156;17.960;2024-02-14T18:59:58;5.80;99.90
17726;DHT22;8983;53.156;17.960;2024-02-14T19:02:26;5.70;99.90
17726;DHT22;8983;53.156;17.960;2024-02-14T19:05:00;5.70;99.90
17726;DHT22;8983;53.156;17.960;2024-02-14T19:07:28;5.70;99.90
17726;DHT22;8983;53.156;17.960;2024-02-14T19:09:56;5.70;99.90
17726;DHT22;8983;53.156;17.960;2024-02-14T19:12:28;5.70;99.90
17726;DHT22;8983;53.156;17.960;2024-02-14T19:14:59;5.60;99.90
17726;DHT22;8983;53.156;17.960;2024-02-14T19:17:30;5.80;99.90
17726;DHT22;8983;53.156;17.960;2024-02-14T19:27:29;5.70;99.90
17726;DHT22;8983;53.156;17.960;2024-02-14T19:29:57;5.80;99.90
17726;DHT22;8983;53.156;17.960;2024-02-14T19:39:52;6.00;99.90
17726;DHT22;8983;53.156;17.960;2024-02-14T19:44:51;5.80;99.90
17726;DHT22;8983;53.156;17.960;2024-02-14T19:47:20;5.70;99.90
17726;DHT22;8983;53.156;17.960;2024-02-14T19:49:48;5.60;99.90
17726;DHT22;8983;53.156;17.960;2024-02-14T19:52:16;5.90;99.90
17726;DHT22;8983;53.156;17.960;2024-02-14T20:02:11;5.80;99.90
17726;DHT22;8983;53.156;17.960;2024-02-14T20:24:41;5.80;99.90
17726;DHT22;8983;53.156;17.960;2024-02-14T20:37:05;5.80;99.90
17726;DHT22;8983;53.156;17.960;2024-02-14T21:16:49;5.70;99.90
17726;DHT22;8983;53.156;17.960;2024-02-14T21:44:13;5.90;99.90
17726;DHT22;8983;53.156;17.960;2024-02-14T21:46:42;5.90;99.90
17726;DHT22;8983;53.156;17.960;2024-02-14T21:49:11;6.00;99.90
17726;DHT22;8983;53.156;17.960;2024-02-14T21:51:41;6.10;99.90
17726;DHT22;8983;53.156;17.960;2024-02-14T21:54:09;5.90;99.90
17726;DHT22;8983;53.156;17.960;2024-02-14T21:56:38;5.90;99.90
17726;DHT22;8983;53.156;17.960;2024-02-14T21:59:07;6.20;99.90
17726;DHT22;8983;53.156;17.960;2024-02-14T22:01:35;6.00;99.90
17726;DHT22;8983;53.156;17.960;2024-02-14T22:04:05;6.00;99.90
17726;DHT22;8983;53.156;17.960;2024-02-14T22:06:33;6.00;99.90
17726;DHT22;8983;53.156;17.960;2024-02-14T22:09:02;6.00;99.90
17726;DHT22;8983;53.156;17.960;2024-02-14T22:11:33;6.00;99.90
17726;DHT22;8983;53.156;17.960;2024-02-14T22:14:02;6.00;99.90
17726;DHT22;8983;53.156;17.960;2024-02-14T22:16:31;6.00;99.90
17726;DHT22;8983;53.156;17.960;2024-02-14T22:18:59;6.00;99.90
17726;DHT22;8983;53.156;17.960;2024-02-14T22:21:30;6.00;99.90
17726;DHT22;8983;53.156;17.960;2024-02-14T22:23:59;6.10;99.90
17726;DHT22;8983;53.156;17.960;2024-02-14T22:26:27;6.00;99.90
17726;DHT22;8983;53.156;17.960;2024-02-14T22:28:56;6.00;99.90
17726;DHT22;8983;53.156;17.960;2024-02-14T22:31:24;7.10;99.90
17726;DHT22;8983;53.156;17.960;2024-02-14T22:33:52;6.00;99.90
17726;DHT22;8983;53.156;17.960;2024-02-14T22:36:21;6.00;99.90
17726;DHT22;8983;53.156;17.960;2024-02-14T22:38:51;6.10;99.90
17726;DHT22;8983;53.156;17.960;2024-02-14T22:41:19;6.10;99.90
17726;DHT22;8983;53.156;17.960;2024-02-14T22:43:49;6.10;99.90
17726;DHT22;8983;53.156;17.960;2024-02-14T22:48:46;5.90;99.90
17726;DHT22;8983;53.156;17.960;2024-02-14T22:53:43;6.00;99.90
17726;DHT22;8983;53.156;17.960;2024-02-14T22:58:42;5.80;99.90
17726;DHT22;8983;53.156;17.960;2024-02-14T23:48:21;6.10;99.90
